Time;durP1;ratioP1;P1;durP2;ratioP2;P2;SDS_P1;SDS_P2;PMS_P1;PMS_P2;Temp;Humidity;BMP_temperature;BMP_pressure;BME280_temperature;BME280_humidity;BME280_pressure;Samples;Min_cycle;Max_cycle;Signal;HPM_P1;HPM_P2
2022/04/16 00:01:10;;;;;;;14.75;11.23;;;8.40;99.90;;;;;;5014184;28;20096;-44
2022/04/16 00:03:37;;;;;;;17.98;11.55;;;8.40;99.90;;;;;;5012842;28;20459;-43
2022/04/16 00:06:04;;;;;;;16.95;10.70;;;8.30;99.90;;;;;;5014600;28;20050;-44
2022/04/16 00:08:32;;;;;;;17.60;11.07;;;8.30;99.90;;;;;;5012552;28;20065;-43
2022/04/16 00:10:59;;;;;;;19.05;12.38;;;8.30;99.90;;;;;;5013276;28;20052;-44
2022/04/16 00:13:26;;;;;;;14.82;11.40;;;8.20;99.90;;;;;;5010118;28;20505;-44
2022/04/16 00:15:53;;;;;;;17.38;12.38;;;8.10;99.90;;;;;;5014603;28;20056;-44
2022/04/16 00:18:20;;;;;;;20.35;13.07;;;8.10;99.90;;;;;;5014880;28;20050;-45
2022/04/16 00:20:48;;;;;;;19.92;11.93;;;8.00;99.90;;;;;;5010805;28;20062;-44
2022/04/16 00:23:15;;;;;;;22.17;14.68;;;7.90;99.90;;;;;;5007702;28;20054;-44
2022/04/16 00:25:43;;;;;;;22.77;15.35;;;7.90;99.90;;;;;;5008372;28;20058;-44
2022/04/16 00:28:09;;;;;;;22.60;14.70;;;7.90;99.90;;;;;;5012101;28;20533;-44
2022/04/16 00:30:39;;;;;;;27.42;15.75;;;7.80;99.90;;;;;;5015332;28;20056;-43
2022/04/16 00:33:06;;;;;;;20.65;14.55;;;7.80;99.90;;;;;;5010206;28;20371;-43
2022/04/16 00:35:33;;;;;;;25.73;17.02;;;7.70;99.90;;;;;;5015360;28;20455;-43
2022/04/16 00:38:00;;;;;;;20.88;16.00;;;7.70;99.90;;;;;;5013864;28;20046;-43
2022/04/16 00:40:26;;;;;;;26.13;15.65;;;7.70;99.90;;;;;;5013055;28;20052;-43
2022/04/16 00:42:54;;;;;;;17.92;13.05;;;7.60;99.90;;;;;;5010466;28;20486;-43
2022/04/16 00:45:21;;;;;;;22.00;15.70;;;7.60;99.90;;;;;;5013280;28;20054;-43
2022/04/16 00:47:48;;;;;;;23.08;14.55;;;7.60;99.90;;;;;;5011003;28;20091;-43
2022/04/16 00:50:15;;;;;;;25.90;18.25;;;7.60;99.90;;;;;;5011661;28;20052;-43
2022/04/16 00:52:43;;;;;;;28.30;19.20;;;7.50;99.90;;;;;;5010369;28;20416;-43
2022/04/16 00:55:10;;;;;;;26.15;15.25;;;7.50;99.90;;;;;;5002912;28;20049;-43
2022/04/16 00:57:37;;;;;;;33.05;19.95;;;7.50;99.90;;;;;;5013267;28;20057;-43
2022/04/16 01:00:07;;;;;;;26.17;17.30;;;7.40;99.90;;;;;;5010818;28;20121;-44
2022/04/16 01:02:34;;;;;;;27.95;18.33;;;7.40;99.90;;;;;;5005440;28;20486;-43
2022/04/16 01:05:01;;;;;;;23.33;15.10;;;7.40;99.90;;;;;;5009149;28;20050;-43
2022/04/16 01:07:28;;;;;;;25.65;16.90;;;7.30;99.90;;;;;;5012701;28;20474;-43
2022/04/16 01:09:54;;;;;;;23.33;16.35;;;7.30;99.90;;;;;;5011031;28;20052;-43
2022/04/16 01:12:21;;;;;;;24.60;16.55;;;7.30;99.90;;;;;;5001498;28;20050;-43
2022/04/16 01:14:50;;;;;;;24.65;15.65;;;7.30;99.90;;;;;;5008621;28;20056;-43
2022/04/16 01:17:18;;;;;;;24.02;16.23;;;7.20;99.90;;;;;;5010865;28;20092;-43
2022/04/16 01:19:45;;;;;;;28.05;17.40;;;7.20;99.90;;;;;;5011670;28;20092;-43
2022/04/16 01:22:12;;;;;;;22.75;15.18;;;7.20;99.90;;;;;;5004181;28;20056;-43
2022/04/16 01:24:43;;;;;;;21.83;14.80;;;7.20;99.90;;;;;;5011594;28;20053;-43
2022/04/16 01:27:10;;;;;;;25.40;15.40;;;7.10;99.90;;;;;;5009461;28;20108;-43
2022/04/16 01:29:36;;;;;;;20.42;14.55;;;7.10;99.90;;;;;;5002689;28;20056;-43
2022/04/16 01:32:03;;;;;;;19.02;13.48;;;7.10;99.90;;;;;;5010696;28;20414;-43
2022/04/16 01:34:30;;;;;;;19.25;12.95;;;7.10;99.90;;;;;;5013486;28;20048;-43
2022/04/16 01:37:02;;;;;;;19.02;13.25;;;7.00;99.90;;;;;;5011287;28;20045;-43
2022/04/16 01:39:29;;;;;;;18.50;13.43;;;7.00;99.90;;;;;;5010135;28;20048;-43
2022/04/16 01:41:58;;;;;;;19.55;12.88;;;7.00;99.90;;;;;;5012323;28;20081;-43
2022/04/16 01:44:25;;;;;;;21.42;14.00;;;6.90;99.90;;;;;;5012457;28;20046;-43
2022/04/16 01:46:51;;;;;;;23.20;14.38;;;6.90;99.90;;;;;;5012967;28;20053;-43
2022/04/16 01:49:20;;;;;;;21.90;15.10;;;6.80;99.90;;;;;;5011076;28;20045;-43
2022/04/16 01:51:48;;;;;;;19.35;13.63;;;6.80;99.90;;;;;;5010978;28;20425;-43
2022/04/16 01:54:14;;;;;;;21.58;15.30;;;6.80;99.90;;;;;;5010384;28;20080;-44
2022/04/16 01:56:41;;;;;;;18.38;13.73;;;6.80;99.90;;;;;;5007690;28;20089;-43
2022/04/16 01:59:09;;;;;;;19.75;14.35;;;6.70;99.90;;;;;;5009469;28;20056;-43
2022/04/16 02:01:36;;;;;;;19.63;13.80;;;6.70;99.90;;;;;;5011573;28;20046;-43
2022/04/16 02:04:02;;;;;;;20.58;13.38;;;6.70;99.90;;;;;;5003462;28;20092;-43
2022/04/16 02:06:29;;;;;;;22.48;13.93;;;6.60;99.90;;;;;;5009473;28;20057;-44
2022/04/16 02:08:56;;;;;;;22.42;14.07;;;6.60;99.90;;;;;;5012233;28;20080;-43
2022/04/16 02:11:23;;;;;;;27.63;17.00;;;6.60;99.90;;;;;;5008907;28;20046;-43
2022/04/16 02:13:49;;;;;;;26.45;16.60;;;6.50;99.90;;;;;;5006677;28;20054;-43
2022/04/16 02:16:17;;;;;;;27.00;17.52;;;6.50;99.90;;;;;;5012134;28;20557;-43
2022/04/16 02:18:44;;;;;;;29.95;18.92;;;6.40;99.90;;;;;;5011142;28;20060;-43
2022/04/16 02:21:11;;;;;;;35.38;20.13;;;6.40;99.90;;;;;;5010905;28;20056;-43
2022/04/16 02:23:37;;;;;;;30.23;20.40;;;6.40;99.90;;;;;;5005179;28;20046;-43
2022/04/16 02:26:09;;;;;;;26.08;17.98;;;6.40;99.90;;;;;;5010908;28;20136;-43
2022/04/16 02:28:36;;;;;;;26.27;16.77;;;6.40;99.90;;;;;;5011499;28;20046;-43
2022/04/16 02:31:03;;;;;;;27.65;18.90;;;6.30;99.90;;;;;;5010441;28;20060;-43
2022/04/16 02:33:31;;;;;;;27.50;18.60;;;6.40;99.90;;;;;;4999090;28;20056;-43
2022/04/16 02:35:58;;;;;;;30.77;19.67;;;6.40;99.90;;;;;;5009236;28;20053;-43
2022/04/16 02:38:25;;;;;;;37.92;23.55;;;6.30;99.90;;;;;;5010164;28;20062;-43
2022/04/16 02:40:52;;;;;;;30.83;21.15;;;6.30;99.90;;;;;;5003377;28;20052;-43
2022/04/16 02:43:18;;;;;;;30.42;21.95;;;6.30;99.90;;;;;;5011511;28;20050;-43
2022/04/16 02:48:30;;;;;;;28.02;17.73;;;6.30;99.90;;;;;;5009215;28;20050;-43
2022/04/16 02:50:58;;;;;;;27.58;18.45;;;6.30;99.90;;;;;;5006941;28;20050;-43
2022/04/16 02:53:26;;;;;;;28.50;19.95;;;6.20;99.90;;;;;;5009033;28;20050;-43
2022/04/16 02:55:54;;;;;;;31.70;22.02;;;6.30;99.90;;;;;;5010398;28;20057;-42
2022/04/16 02:58:21;;;;;;;26.13;18.20;;;6.30;99.90;;;;;;5002757;28;20124;-44
2022/04/16 03:00:48;;;;;;;39.13;24.33;;;6.30;99.90;;;;;;5008455;28;20050;-43
2022/04/16 03:03:15;;;;;;;34.90;22.73;;;6.20;99.90;;;;;;5010533;28;20077;-43
2022/04/16 03:05:43;;;;;;;38.17;25.13;;;6.20;99.90;;;;;;5008840;28;20057;-43
2022/04/16 03:08:12;;;;;;;37.25;24.73;;;6.20;99.90;;;;;;5007520;28;20045;-43
2022/04/16 03:10:39;;;;;;;36.08;22.20;;;6.20;99.90;;;;;;5003188;28;20077;-43
2022/04/16 03:13:06;;;;;;;35.47;22.77;;;6.20;99.90;;;;;;5009531;28;20050;-43
2022/04/16 03:18:28;;;;;;;27.10;18.75;;;6.20;99.90;;;;;;4966311;28;20051;-43
2022/04/16 03:20:57;;;;;;;27.55;19.65;;;6.20;99.90;;;;;;5001338;28;20054;-42
2022/04/16 03:23:24;;;;;;;38.85;25.40;;;6.10;99.90;;;;;;5008993;28;20058;-42
2022/04/16 03:25:51;;;;;;;33.28;21.50;;;6.10;99.90;;;;;;5008163;28;20054;-43
2022/04/16 03:28:17;;;;;;;34.92;21.48;;;6.10;99.90;;;;;;5003440;28;20052;-42
2022/04/16 03:30:44;;;;;;;27.60;18.38;;;6.10;99.90;;;;;;5010450;28;20050;-42
2022/04/16 03:33:11;;;;;;;31.98;20.95;;;6.10;99.90;;;;;;5011405;28;20056;-42
2022/04/16 03:35:37;;;;;;;29.42;20.42;;;6.10;99.90;;;;;;5011023;28;20133;-43
2022/04/16 03:38:06;;;;;;;36.17;23.05;;;6.10;99.90;;;;;;5011508;28;20038;-43
2022/04/16 03:40:32;;;;;;;30.15;19.88;;;6.10;99.90;;;;;;5009580;28;20042;-43
2022/04/16 03:43:00;;;;;;;32.17;21.80;;;6.10;99.90;;;;;;5010876;28;20041;-43
2022/04/16 03:45:31;;;;;;;35.38;22.50;;;6.10;99.90;;;;;;5012598;28;20129;-43
2022/04/16 03:47:59;;;;;;;;;;;6.10;99.90;;;;;;5010688;28;20081;-43
2022/04/16 03:50:26;;;;;;;31.13;19.95;;;6.00;99.90;;;;;;5009526;28;20362;-43
2022/04/16 03:52:53;;;;;;;29.23;19.58;;;6.00;99.90;;;;;;5011114;28;20072;-42
2022/04/16 04:00:51;;;;;;;34.42;23.40;;;6.00;99.90;;;;;;5005330;28;20042;-43
2022/04/16 04:03:18;;;;;;;40.58;25.52;;;6.00;99.90;;;;;;5013953;28;20078;-43
2022/04/16 04:05:46;;;;;;;45.15;27.30;;;6.00;99.90;;;;;;5013829;28;20048;-42
2022/04/16 04:08:13;;;;;;;38.85;26.10;;;6.10;99.90;;;;;;5021819;28;20484;-44
2022/04/16 04:10:41;;;;;;;38.92;23.48;;;6.10;99.90;;;;;;5003268;28;20064;-43
2022/04/16 04:13:08;;;;;;;37.40;25.85;;;6.10;99.90;;;;;;5014005;28;20050;-43
2022/04/16 04:15:34;;;;;;;44.35;27.90;;;6.20;99.90;;;;;;5014365;28;20052;-43
2022/04/16 04:18:01;;;;;;;41.53;28.63;;;6.20;99.90;;;;;;5007642;28;20049;-42
2022/04/16 04:20:28;;;;;;;37.38;24.52;;;6.20;99.90;;;;;;5013539;28;20157;-44
2022/04/16 04:22:55;;;;;;;36.40;25.90;;;6.30;99.90;;;;;;5013020;28;20060;-42
2022/04/16 04:25:22;;;;;;;46.95;29.35;;;6.30;99.90;;;;;;5013267;28;20050;-43
2022/04/16 04:27:50;;;;;;;43.75;29.05;;;6.30;99.90;;;;;;5006390;28;20050;-43
2022/04/16 04:30:16;;;;;;;46.97;29.33;;;6.40;99.90;;;;;;5014223;28;20410;-42
2022/04/16 04:32:43;;;;;;;47.00;29.35;;;6.40;99.90;;;;;;5013132;28;20074;-43
2022/04/16 04:35:10;;;;;;;47.70;30.50;;;6.50;99.90;;;;;;5000977;28;20042;-43
2022/04/16 04:37:37;;;;;;;47.05;29.80;;;6.50;99.90;;;;;;5006062;28;20057;-43
2022/04/16 04:40:04;;;;;;;47.85;29.83;;;6.60;99.90;;;;;;5010377;28;20060;-43
2022/04/16 04:42:32;;;;;;;45.67;29.85;;;6.60;99.90;;;;;;5013749;28;20046;-43
2022/04/16 04:45:08;;;;;;;47.10;30.10;;;6.70;99.90;;;;;;5010479;28;20574;-43
2022/04/16 04:47:35;;;;;;;45.80;29.95;;;6.80;99.90;;;;;;5012681;28;20054;-43
2022/04/16 04:50:01;;;;;;;50.38;29.15;;;6.80;99.90;;;;;;5011392;28;20053;-43
2022/04/16 04:52:29;;;;;;;45.95;29.90;;;6.90;99.90;;;;;;5012024;28;20089;-43
2022/04/16 04:54:56;;;;;;;47.05;30.33;;;6.90;99.90;;;;;;5012614;28;20787;-43
2022/04/16 04:57:23;;;;;;;45.38;30.63;;;7.00;99.90;;;;;;5012305;28;20057;-43
2022/04/16 04:59:49;;;;;;;47.78;30.20;;;7.00;99.90;;;;;;5009032;28;20045;-43
2022/04/16 05:02:17;;;;;;;48.63;30.50;;;7.10;99.90;;;;;;5011105;28;20054;-42
2022/04/16 05:04:44;;;;;;;46.72;30.15;;;7.10;99.90;;;;;;5010427;28;20050;-43
2022/04/16 05:07:11;;;;;;;41.97;26.58;;;7.10;99.90;;;;;;5011803;28;20054;-42
2022/04/16 05:09:37;;;;;;;43.65;27.80;;;7.20;99.90;;;;;;5010519;28;20042;-43
2022/04/16 05:12:05;;;;;;;44.72;28.00;;;7.20;99.90;;;;;;5012114;28;20483;-43
2022/04/16 05:14:32;;;;;;;37.83;25.33;;;7.30;99.90;;;;;;5012089;28;20489;-43
2022/04/16 05:16:59;;;;;;;43.85;25.38;;;7.30;99.90;;;;;;5012362;28;20042;-43
2022/04/16 05:19:27;;;;;;;36.90;24.50;;;7.30;99.90;;;;;;5006996;28;20049;-43
2022/04/16 05:21:54;;;;;;;39.63;24.80;;;7.40;99.90;;;;;;5010993;28;20046;-43
2022/04/16 05:24:20;;;;;;;39.90;24.80;;;7.40;99.90;;;;;;5013022;28;20133;-42
2022/04/16 05:26:47;;;;;;;35.92;21.83;;;7.40;99.90;;;;;;5011948;28;20493;-43
2022/04/16 05:29:14;;;;;;;36.55;23.02;;;7.50;99.90;;;;;;5012156;28;20081;-42
2022/04/16 05:31:41;;;;;;;33.88;21.20;;;7.50;99.90;;;;;;5010562;28;20045;-43
2022/04/16 05:34:20;;;;;;;32.28;21.13;;;7.50;99.90;;;;;;5011181;28;20100;-43
2022/04/16 05:36:49;;;;;;;32.40;19.38;;;7.60;99.90;;;;;;5011226;28;20136;-42
2022/04/16 05:39:16;;;;;;;36.00;21.00;;;7.60;99.90;;;;;;5005976;28;20042;-43
2022/04/16 05:41:43;;;;;;;30.70;19.63;;;7.60;99.90;;;;;;5011263;28;20054;-43
2022/04/16 05:44:10;;;;;;;32.83;19.83;;;7.70;99.90;;;;;;5011217;28;20046;-42
2022/04/16 05:46:36;;;;;;;31.60;20.40;;;7.70;99.90;;;;;;5010068;28;20053;-44
2022/04/16 05:49:03;;;;;;;28.92;18.95;;;7.70;99.90;;;;;;5011247;28;20056;-42
2022/04/16 05:51:30;;;;;;;29.85;19.08;;;7.70;99.90;;;;;;5006965;28;20300;-42
2022/04/16 05:53:58;;;;;;;29.83;18.45;;;7.80;99.90;;;;;;5009919;28;20046;-42
2022/04/16 05:56:25;;;;;;;32.00;19.65;;;7.90;99.90;;;;;;5010417;28;20486;-45
2022/04/16 05:58:52;;;;;;;28.40;17.85;;;7.90;99.90;;;;;;5013140;28;20057;-45
2022/04/16 06:01:18;;;;;;;28.17;17.85;;;7.90;99.90;;;;;;5004927;28;20042;-45
2022/04/16 06:03:45;;;;;;;30.80;18.42;;;8.00;99.90;;;;;;5006148;28;20133;-43
2022/04/16 06:06:12;;;;;;;31.08;18.58;;;8.00;99.90;;;;;;5009815;28;20065;-44
2022/04/16 06:08:38;;;;;;;27.92;17.50;;;8.00;99.90;;;;;;5011713;28;20053;-42
2022/04/16 06:11:07;;;;;;;23.90;16.45;;;8.10;99.90;;;;;;5012373;28;20402;-42
2022/04/16 06:13:34;;;;;;;28.55;17.30;;;8.20;99.90;;;;;;5012463;28;20054;-44
2022/04/16 06:16:00;;;;;;;25.67;16.42;;;8.20;99.90;;;;;;5010425;28;20374;-44
2022/04/16 06:18:27;;;;;;;28.25;16.77;;;8.20;99.90;;;;;;5010089;28;20137;-43
2022/04/16 06:20:54;;;;;;;25.70;15.52;;;8.20;99.90;;;;;;5011511;28;20213;-43
2022/04/16 06:23:21;;;;;;;26.75;16.25;;;8.20;99.90;;;;;;5010146;28;20053;-44
2022/04/16 06:25:47;;;;;;;23.02;14.95;;;8.20;99.90;;;;;;5005982;28;20046;-43
2022/04/16 06:28:16;;;;;;;25.35;16.15;;;8.20;99.90;;;;;;5009033;28;20046;-43
2022/04/16 06:30:42;;;;;;;28.55;16.50;;;8.20;99.90;;;;;;5011808;28;20049;-43
2022/04/16 06:33:09;;;;;;;26.95;16.10;;;8.30;99.90;;;;;;5008189;28;20486;-43
2022/04/16 06:35:36;;;;;;;27.00;16.33;;;8.30;99.90;;;;;;5014604;28;20459;-43
2022/04/16 06:38:02;;;;;;;25.65;14.93;;;8.30;99.90;;;;;;5010385;28;20486;-43
2022/04/16 06:40:29;;;;;;;24.48;15.10;;;8.40;99.90;;;;;;5006532;28;20394;-43
2022/04/16 06:42:56;;;;;;;26.95;15.32;;;8.40;99.90;;;;;;5007337;28;20046;-43
2022/04/16 06:45:24;;;;;;;22.77;15.05;;;8.40;99.90;;;;;;5010777;28;20050;-44
2022/04/16 06:47:51;;;;;;;24.85;15.25;;;8.50;99.90;;;;;;5009428;28;20050;-43
2022/04/16 06:50:17;;;;;;;27.67;16.27;;;8.50;99.90;;;;;;5009447;28;20041;-44
2022/04/16 06:52:45;;;;;;;25.75;15.30;;;8.60;99.90;;;;;;5008415;28;20057;-43
2022/04/16 06:55:11;;;;;;;26.90;15.00;;;8.60;99.90;;;;;;5008642;28;20054;-43
2022/04/16 06:57:38;;;;;;;23.92;14.25;;;8.70;99.90;;;;;;5008708;28;20502;-42
2022/04/16 07:00:06;;;;;;;25.23;15.02;;;8.70;99.90;;;;;;5007362;28;20132;-44
2022/04/16 07:02:34;;;;;;;21.58;14.20;;;8.80;99.90;;;;;;5009712;28;20050;-44
2022/04/16 07:05:02;;;;;;;21.52;14.50;;;8.80;99.90;;;;;;5003387;28;20049;-43
2022/04/16 07:07:29;;;;;;;22.23;14.15;;;8.90;99.90;;;;;;5005304;28;20380;-43
2022/04/16 07:09:56;;;;;;;26.20;15.25;;;9.00;99.90;;;;;;5010570;28;20100;-44
2022/04/16 07:12:22;;;;;;;20.90;13.30;;;9.10;99.90;;;;;;5007612;28;20056;-44
2022/04/16 07:14:50;;;;;;;22.88;13.27;;;9.30;99.90;;;;;;5009646;28;20060;-44
2022/04/16 07:17:16;;;;;;;22.33;13.70;;;9.40;99.90;;;;;;5008554;28;20057;-43
2022/04/16 07:19:44;;;;;;;21.33;14.02;;;9.50;99.90;;;;;;5008349;28;20068;-43
2022/04/16 07:22:11;;;;;;;21.20;14.05;;;9.70;99.90;;;;;;5006197;28;20518;-43
2022/04/16 07:24:41;;;;;;;21.15;13.00;;;9.80;99.90;;;;;;5009050;28;20046;-43
2022/04/16 07:27:08;;;;;;;20.17;13.25;;;9.90;99.90;;;;;;5010571;28;20129;-43
2022/04/16 07:29:35;;;;;;;19.40;12.98;;;10.00;99.90;;;;;;5010784;28;20128;-44
2022/04/16 07:32:08;;;;;;;20.92;13.38;;;10.10;99.90;;;;;;5010379;28;20509;-43
2022/04/16 07:34:34;;;;;;;21.55;13.25;;;10.20;99.90;;;;;;5008922;28;20068;-43
2022/04/16 07:37:03;;;;;;;24.65;13.15;;;10.20;99.90;;;;;;5011600;28;20050;-43
2022/04/16 07:39:29;;;;;;;19.15;11.90;;;10.40;99.90;;;;;;5012982;28;20056;-43
2022/04/16 07:41:57;;;;;;;19.63;12.90;;;10.40;99.90;;;;;;5012529;28;20513;-43
2022/04/16 07:44:24;;;;;;;20.25;12.77;;;10.50;99.90;;;;;;5010018;28;20104;-44
2022/04/16 07:46:50;;;;;;;17.67;12.13;;;10.70;99.90;;;;;;5009735;28;20064;-44
2022/04/16 07:49:18;;;;;;;18.33;12.32;;;10.80;99.90;;;;;;5009958;28;20056;-44
2022/04/16 07:51:45;;;;;;;15.95;11.02;;;10.90;99.90;;;;;;5010290;28;20046;-44
2022/04/16 07:54:13;;;;;;;22.58;10.90;;;10.90;99.90;;;;;;5012147;28;20069;-44
2022/04/16 07:56:40;;;;;;;19.08;10.93;;;11.10;99.90;;;;;;5012651;28;20413;-44
2022/04/16 07:59:06;;;;;;;15.20;9.82;;;11.20;99.90;;;;;;5013216;28;20042;-44
2022/04/16 08:01:33;;;;;;;16.17;10.75;;;11.30;99.90;;;;;;5007436;28;20056;-44
2022/04/16 08:04:01;;;;;;;16.60;10.35;;;11.50;99.90;;;;;;5010977;28;20053;-44
2022/04/16 08:06:28;;;;;;;14.10;8.98;;;11.60;99.90;;;;;;5009956;28;20136;-44
2022/04/16 08:09:00;;;;;;;14.15;9.40;;;11.70;99.90;;;;;;5011233;28;20383;-44
2022/04/16 08:11:29;;;;;;;16.27;9.43;;;11.70;99.90;;;;;;5008425;28;20517;-45
2022/04/16 08:13:55;;;;;;;11.85;8.65;;;11.80;99.40;;;;;;5011216;28;20053;-44
2022/04/16 08:16:22;;;;;;;14.93;8.70;;;11.90;98.90;;;;;;5009169;28;20490;-44
2022/04/16 08:18:49;;;;;;;13.52;8.75;;;11.90;99.00;;;;;;5014910;28;20056;-44
2022/04/16 08:21:15;;;;;;;13.13;9.13;;;12.10;99.10;;;;;;5009718;28;20470;-45
2022/04/16 08:23:55;;;;;;;16.30;9.13;;;12.10;98.40;;;;;;5008595;28;20046;-44
2022/04/16 08:26:21;;;;;;;12.52;7.63;;;12.30;98.40;;;;;;5010856;28;20133;-42
2022/04/16 08:28:49;;;;;;;12.18;6.72;;;12.30;97.20;;;;;;5010844;28;20407;-43
2022/04/16 08:31:16;;;;;;;10.32;7.15;;;12.40;95.80;;;;;;5012753;28;20409;-43
2022/04/16 08:33:43;;;;;;;11.38;6.63;;;12.40;96.60;;;;;;5013079;28;20056;-43
2022/04/16 08:36:09;;;;;;;8.88;5.95;;;12.50;95.80;;;;;;5010045;28;20053;-43
2022/04/16 08:38:36;;;;;;;11.70;6.35;;;12.50;95.00;;;;;;5013418;28;20520;-42
2022/04/16 08:41:04;;;;;;;8.90;5.47;;;12.60;94.50;;;;;;5011968;28;20049;-43
2022/04/16 08:43:31;;;;;;;8.95;5.47;;;12.60;94.60;;;;;;5026051;28;20046;-43
2022/04/16 08:45:59;;;;;;;7.28;4.75;;;12.70;93.90;;;;;;5004650;28;20497;-42
2022/04/16 08:48:25;;;;;;;6.18;3.88;;;12.80;93.30;;;;;;5003686;28;20046;-43
2022/04/16 08:50:52;;;;;;;7.78;4.40;;;12.80;91.90;;;;;;5001828;28;20109;-43
2022/04/16 08:53:19;;;;;;;7.07;3.92;;;12.80;91.50;;;;;;5010744;28;20049;-43
2022/04/16 08:55:45;;;;;;;9.07;4.68;;;12.90;91.40;;;;;;5009014;28;20068;-43
2022/04/16 08:58:12;;;;;;;4.00;2.90;;;13.00;91.30;;;;;;5011173;28;20502;-43
2022/04/16 09:00:39;;;;;;;4.47;3.20;;;13.10;89.60;;;;;;5006402;28;20058;-43
2022/04/16 09:03:09;;;;;;;5.57;3.00;;;13.20;86.80;;;;;;5012399;28;20050;-43
2022/04/16 09:05:36;;;;;;;4.30;2.65;;;13.20;85.00;;;;;;5011341;28;20054;-43
2022/04/16 09:08:03;;;;;;;4.93;2.72;;;13.40;83.90;;;;;;5007558;28;20050;-43
2022/04/16 09:10:31;;;;;;;4.60;2.40;;;13.30;80.70;;;;;;5013446;28;20056;-43
2022/04/16 09:12:58;;;;;;;4.47;2.63;;;13.40;78.40;;;;;;5001852;28;20057;-43
2022/04/16 09:15:25;;;;;;;4.57;3.05;;;13.40;76.60;;;;;;5008146;28;20056;-43
2022/04/16 09:17:59;;;;;;;4.07;2.45;;;13.40;77.80;;;;;;5003647;28;20050;-45
2022/04/16 09:20:35;;;;;;;3.85;2.33;;;13.50;76.60;;;;;;5012789;28;20056;-43
2022/04/16 09:23:02;;;;;;;5.15;2.90;;;13.70;73.50;;;;;;5012737;28;20054;-43
2022/04/16 09:25:30;;;;;;;3.65;2.33;;;13.80;74.40;;;;;;5004058;28;20487;-43
2022/04/16 09:27:58;;;;;;;4.45;2.55;;;13.90;74.20;;;;;;5009193;28;20694;-44
2022/04/16 09:30:25;;;;;;;3.63;2.20;;;14.10;73.60;;;;;;5008264;28;20509;-44
2022/04/16 09:32:52;;;;;;;4.18;2.20;;;14.20;74.60;;;;;;5008194;28;20057;-43
2022/04/16 09:35:29;;;;;;;3.97;2.00;;;14.30;71.70;;;;;;5010898;28;20054;-44
2022/04/16 09:37:57;;;;;;;5.07;2.35;;;14.20;70.80;;;;;;5009519;28;20053;-43
2022/04/16 09:40:26;;;;;;;6.55;2.42;;;14.40;72.20;;;;;;5009651;28;20054;-43
2022/04/16 09:42:54;;;;;;;7.05;2.00;;;14.50;71.10;;;;;;5011576;28;20136;-43
2022/04/16 09:45:20;;;;;;;4.53;2.00;;;14.60;71.00;;;;;;5011076;28;20048;-44
2022/04/16 09:47:48;;;;;;;3.45;2.13;;;14.80;70.60;;;;;;5010899;28;20486;-44
2022/04/16 09:50:15;;;;;;;5.22;2.28;;;14.90;69.60;;;;;;5009398;28;20053;-44
2022/04/16 09:52:42;;;;;;;4.20;1.92;;;15.00;68.20;;;;;;5008891;28;20054;-44
2022/04/16 09:55:10;;;;;;;3.88;2.25;;;15.00;67.30;;;;;;5009419;28;20053;-44
2022/04/16 09:57:38;;;;;;;4.10;2.05;;;15.10;66.40;;;;;;5008376;28;20060;-43
2022/04/16 10:00:06;;;;;;;3.65;2.03;;;15.10;66.50;;;;;;5010431;28;20054;-44
2022/04/16 10:02:34;;;;;;;6.63;2.20;;;15.20;65.50;;;;;;5011433;28;20049;-44
2022/04/16 10:05:01;;;;;;;2.92;1.85;;;15.20;65.50;;;;;;5009617;28;20096;-44
2022/04/16 10:07:28;;;;;;;3.45;1.90;;;15.30;64.70;;;;;;5007544;28;20483;-43
2022/04/16 10:09:55;;;;;;;2.42;1.63;;;15.40;64.20;;;;;;5009243;28;20058;-44
2022/04/16 10:15:09;;;;;;;5.15;1.65;;;15.50;61.50;;;;;;5009610;28;20045;-43
2022/04/16 10:17:39;;;;;;;4.32;1.70;;;15.50;61.80;;;;;;5006363;28;20469;-43
2022/04/16 10:20:07;;;;;;;2.50;1.70;;;15.50;61.30;;;;;;5016325;28;20281;-45
2022/04/16 10:22:34;;;;;;;4.32;1.42;;;15.60;60.60;;;;;;5009763;28;20058;-44
2022/04/16 10:25:01;;;;;;;4.60;1.50;;;15.70;61.30;;;;;;5011176;28;20081;-42
2022/04/16 10:27:29;;;;;;;4.82;1.40;;;15.80;59.80;;;;;;5010492;28;20060;-44
2022/04/16 10:30:00;;;;;;;2.00;1.10;;;15.80;56.60;;;;;;5008512;28;20056;-44
2022/04/16 10:32:28;;;;;;;2.50;1.40;;;15.70;55.40;;;;;;5009619;28;20054;-43
2022/04/16 10:35:03;;;;;;;2.33;1.17;;;15.70;54.80;;;;;;5008290;28;20056;-43
2022/04/16 10:37:29;;;;;;;1.95;1.40;;;15.80;51.10;;;;;;5002413;28;20046;-43
2022/04/16 10:39:56;;;;;;;2.30;1.10;;;15.70;53.90;;;;;;5008378;28;20058;-43
2022/04/16 10:42:31;;;;;;;1.88;1.10;;;15.60;52.80;;;;;;5009475;28;20050;-45
2022/04/16 10:45:08;;;;;;;2.67;1.20;;;15.60;50.70;;;;;;5008578;28;21272;-45
2022/04/16 10:47:36;;;;;;;3.15;1.17;;;15.70;52.10;;;;;;5019876;28;20490;-45
2022/04/16 10:50:08;;;;;;;3.58;0.93;;;15.80;52.20;;;;;;5008227;28;20096;-43
2022/04/16 10:52:35;;;;;;;2.83;0.95;;;15.80;50.20;;;;;;5011854;28;20085;-43
2022/04/16 10:55:02;;;;;;;4.53;1.20;;;15.90;51.40;;;;;;5012244;28;20487;-43
2022/04/16 10:57:29;;;;;;;7.55;1.40;;;15.90;51.70;;;;;;5011450;28;20057;-43
2022/04/16 10:59:58;;;;;;;1.45;1.00;;;15.90;50.90;;;;;;5011174;28;20410;-44
2022/04/16 11:02:25;;;;;;;4.30;1.00;;;16.00;50.60;;;;;;5012107;28;20050;-44
2022/04/16 11:04:59;;;;;;;2.65;1.00;;;16.10;49.90;;;;;;5009348;28;20142;-43
2022/04/16 11:07:26;;;;;;;2.28;1.10;;;16.10;48.50;;;;;;5009862;28;20045;-43
2022/04/16 11:09:53;;;;;;;1.63;0.70;;;16.10;48.40;;;;;;5016105;28;20052;-45
2022/04/16 11:12:20;;;;;;;1.63;0.80;;;16.10;46.90;;;;;;5015964;28;20043;-44
2022/04/16 11:14:49;;;;;;;1.90;0.85;;;16.20;47.00;;;;;;5013591;28;20088;-43
2022/04/16 11:17:17;;;;;;;1.65;0.68;;;16.10;44.90;;;;;;5016196;28;20061;-44
2022/04/16 11:19:44;;;;;;;2.83;0.80;;;16.00;45.40;;;;;;5015228;28;20053;-43
2022/04/16 11:22:11;;;;;;;3.03;0.93;;;16.00;45.50;;;;;;5012448;28;20061;-43
2022/04/16 11:24:37;;;;;;;1.77;0.80;;;16.00;46.00;;;;;;5004868;28;20081;-44
2022/04/16 11:35:23;;;;;;;1.77;0.85;;;16.60;44.60;;;;;;5007309;28;20054;-44
2022/04/16 11:37:54;;;;;;;1.95;0.98;;;16.70;44.20;;;;;;5012170;28;20057;-43
2022/04/16 11:40:20;;;;;;;1.60;0.95;;;16.60;44.80;;;;;;5014977;28;20056;-44
2022/04/16 11:42:47;;;;;;;2.17;0.93;;;16.60;44.80;;;;;;5005325;28;20054;-43
2022/04/16 11:45:14;;;;;;;0.95;0.70;;;16.70;44.50;;;;;;5013465;28;20049;-43
2022/04/16 11:47:42;;;;;;;1.48;0.98;;;16.80;44.30;;;;;;5011788;28;20056;-44
2022/04/16 11:50:11;;;;;;;2.72;0.93;;;16.80;43.40;;;;;;5014298;28;20053;-45
2022/04/16 11:52:39;;;;;;;1.50;0.85;;;16.70;43.00;;;;;;5006863;28;20060;-44
2022/04/16 11:55:06;;;;;;;2.35;0.85;;;16.70;42.00;;;;;;5013525;28;20140;-44
2022/04/16 11:57:33;;;;;;;3.28;1.10;;;16.80;43.10;;;;;;5013488;28;20060;-44
2022/04/16 12:00:00;;;;;;;1.73;0.90;;;16.80;43.30;;;;;;5014035;28;20454;-44
2022/04/16 12:02:32;;;;;;;1.50;0.80;;;16.90;43.20;;;;;;5013725;28;20398;-44
2022/04/16 12:05:09;;;;;;;2.97;0.90;;;16.90;42.00;;;;;;5007829;28;20069;-45
2022/04/16 12:07:37;;;;;;;2.47;0.80;;;17.00;39.80;;;;;;5012496;28;20125;-44
2022/04/16 12:10:05;;;;;;;1.80;0.80;;;17.10;42.40;;;;;;5008763;28;20498;-44
2022/04/16 12:12:39;;;;;;;3.13;0.93;;;17.20;42.30;;;;;;5003821;28;20105;-44
2022/04/16 12:15:07;;;;;;;1.40;0.85;;;17.40;42.40;;;;;;5013430;28;20133;-44
2022/04/16 12:17:34;;;;;;;1.45;0.80;;;17.50;41.70;;;;;;5013200;28;20050;-43
2022/04/16 12:20:05;;;;;;;1.00;0.70;;;17.60;40.60;;;;;;4999034;28;20056;-44
2022/04/16 12:22:33;;;;;;;1.15;0.77;;;17.50;38.70;;;;;;5013631;28;20045;-44
2022/04/16 12:25:10;;;;;;;2.45;1.00;;;17.40;39.20;;;;;;5007309;28;20100;-44
2022/04/16 12:27:39;;;;;;;3.22;1.10;;;17.40;39.00;;;;;;5012142;28;20142;-43
2022/04/16 12:30:06;;;;;;;1.77;1.00;;;17.30;40.70;;;;;;5012961;28;20050;-45
2022/04/16 12:32:33;;;;;;;1.60;1.02;;;17.30;40.90;;;;;;5012635;28;20060;-43
2022/04/16 12:35:00;;;;;;;1.73;1.00;;;17.20;41.40;;;;;;5013743;28;20048;-44
2022/04/16 12:37:26;;;;;;;3.08;1.02;;;17.30;40.80;;;;;;5014516;28;20387;-44
2022/04/16 12:39:54;;;;;;;2.92;0.98;;;17.20;40.10;;;;;;5013902;28;20053;-43
2022/04/16 12:42:21;;;;;;;1.77;1.10;;;17.20;40.20;;;;;;5013203;28;20050;-44
2022/04/16 12:44:48;;;;;;;2.50;1.30;;;17.10;41.00;;;;;;5010954;28;20050;-43
2022/04/16 12:47:14;;;;;;;5.28;1.10;;;17.30;40.70;;;;;;5011541;28;20046;-42
2022/04/16 12:49:41;;;;;;;3.67;1.27;;;17.40;41.10;;;;;;5013383;28;20061;-44
2022/04/16 12:52:09;;;;;;;1.67;0.80;;;17.40;40.20;;;;;;5014350;28;20409;-44
2022/04/16 12:54:36;;;;;;;1.55;0.88;;;17.50;41.10;;;;;;5012660;28;20058;-43
2022/04/16 12:57:04;;;;;;;1.95;0.90;;;17.50;39.70;;;;;;5011091;28;20060;-44
2022/04/16 12:59:31;;;;;;;3.50;0.88;;;17.50;39.30;;;;;;5014306;28;20042;-43
2022/04/16 13:01:57;;;;;;;1.58;1.05;;;17.50;39.70;;;;;;5012538;28;20072;-43
2022/04/16 13:04:24;;;;;;;2.97;1.30;;;17.60;39.80;;;;;;5011948;28;20046;-44